sensor_id;sensor_type;location;lat;lon;timestamp;temperature;humidity
46458;DHT22;32155;54.076;12.092;2023-05-10T00:00:04;11.40;99.90
46458;DHT22;32155;54.076;12.092;2023-05-10T00:02:30;11.40;99.90
46458;DHT22;32155;54.076;12.092;2023-05-10T00:04:55;11.40;99.90
46458;DHT22;32155;54.076;12.092;2023-05-10T00:07:24;11.30;99.90
46458;DHT22;32155;54.076;12.092;2023-05-10T00:09:50;11.30;99.90
46458;DHT22;32155;54.076;12.092;2023-05-10T00:12:16;11.20;99.90
46458;DHT22;32155;54.076;12.092;2023-05-10T00:14:41;11.20;99.90
46458;DHT22;32155;54.076;12.092;2023-05-10T00:17:07;11.20;99.90
46458;DHT22;32155;54.076;12.092;2023-05-10T00:19:32;11.10;99.90
46458;DHT22;32155;54.076;12.092;2023-05-10T00:21:58;11.10;99.90
46458;DHT22;32155;54.076;12.092;2023-05-10T00:24:23;11.10;99.90
46458;DHT22;32155;54.076;12.092;2023-05-10T00:26:49;11.10;99.90
46458;DHT22;32155;54.076;12.092;2023-05-10T00:29:14;11.00;99.90
46458;DHT22;32155;54.076;12.092;2023-05-10T00:31:42;11.00;99.90
46458;DHT22;32155;54.076;12.092;2023-05-10T00:34:08;11.00;99.90
46458;DHT22;32155;54.076;12.092;2023-05-10T00:36:33;11.00;99.90
46458;DHT22;32155;54.076;12.092;2023-05-10T00:39:02;10.90;99.90
46458;DHT22;32155;54.076;12.092;2023-05-10T00:41:29;10.90;99.90
46458;DHT22;32155;54.076;12.092;2023-05-10T00:43:57;10.90;99.90
46458;DHT22;32155;54.076;12.092;2023-05-10T00:46:23;10.80;99.90
46458;DHT22;32155;54.076;12.092;2023-05-10T00:48:48;10.80;99.90
46458;DHT22;32155;54.076;12.092;2023-05-10T00:51:14;10.80;99.90
46458;DHT22;32155;54.076;12.092;2023-05-10T00:53:40;10.80;99.90
46458;DHT22;32155;54.076;12.092;2023-05-10T00:56:06;10.70;99.90
46458;DHT22;32155;54.076;12.092;2023-05-10T00:58:33;10.70;99.90
46458;DHT22;32155;54.076;12.092;2023-05-10T01:01:01;10.70;99.90
46458;DHT22;32155;54.076;12.092;2023-05-10T01:03:27;10.70;99.90
46458;DHT22;32155;54.076;12.092;2023-05-10T01:05:53;10.70;99.90
46458;DHT22;32155;54.076;12.092;2023-05-10T01:08:18;10.60;99.90
46458;DHT22;32155;54.076;12.092;2023-05-10T01:10:44;10.60;99.90
46458;DHT22;32155;54.076;12.092;2023-05-10T01:13:10;10.60;99.90
46458;DHT22;32155;54.076;12.092;2023-05-10T01:15:36;10.60;99.90
46458;DHT22;32155;54.076;12.092;2023-05-10T01:18:02;10.60;99.90
46458;DHT22;32155;54.076;12.092;2023-05-10T01:20:35;10.50;99.90
46458;DHT22;32155;54.076;12.092;2023-05-10T01:28:21;10.40;99.90
46458;DHT22;32155;54.076;12.092;2023-05-10T01:33:39;10.40;99.90
46458;DHT22;32155;54.076;12.092;2023-05-10T01:46:27;10.30;99.90
46458;DHT22;32155;54.076;12.092;2023-05-10T01:48:54;10.30;99.90
46458;DHT22;32155;54.076;12.092;2023-05-10T01:51:22;10.20;99.90
46458;DHT22;32155;54.076;12.092;2023-05-10T01:53:48;10.20;99.90
46458;DHT22;32155;54.076;12.092;2023-05-10T01:56:19;10.20;99.90
46458;DHT22;32155;54.076;12.092;2023-05-10T01:58:46;10.20;99.90
46458;DHT22;32155;54.076;12.092;2023-05-10T02:01:13;10.20;99.90
46458;DHT22;32155;54.076;12.092;2023-05-10T02:03:40;10.10;99.90
46458;DHT22;32155;54.076;12.092;2023-05-10T02:06:06;10.20;99.90
46458;DHT22;32155;54.076;12.092;2023-05-10T02:08:35;10.10;99.90
46458;DHT22;32155;54.076;12.092;2023-05-10T02:11:02;10.10;99.90
46458;DHT22;32155;54.076;12.092;2023-05-10T02:13:29;10.10;99.90
46458;DHT22;32155;54.076;12.092;2023-05-10T02:15:56;10.10;99.90
46458;DHT22;32155;54.076;12.092;2023-05-10T02:18:24;10.10;99.90
46458;DHT22;32155;54.076;12.092;2023-05-10T02:20:53;10.00;99.90
46458;DHT22;32155;54.076;12.092;2023-05-10T02:23:20;10.00;99.90
46458;DHT22;32155;54.076;12.092;2023-05-10T02:25:47;10.00;99.90
46458;DHT22;32155;54.076;12.092;2023-05-10T02:28:13;10.00;99.90
46458;DHT22;32155;54.076;12.092;2023-05-10T02:30:39;9.90;99.90
46458;DHT22;32155;54.076;12.092;2023-05-10T02:33:05;9.90;99.90
46458;DHT22;32155;54.076;12.092;2023-05-10T02:35:31;9.80;99.90
46458;DHT22;32155;54.076;12.092;2023-05-10T02:37:58;9.80;99.90
46458;DHT22;32155;54.076;12.092;2023-05-10T02:40:24;9.80;99.90
46458;DHT22;32155;54.076;12.092;2023-05-10T02:42:52;9.80;99.90
46458;DHT22;32155;54.076;12.092;2023-05-10T02:45:20;9.80;99.90
46458;DHT22;32155;54.076;12.092;2023-05-10T02:47:47;9.70;99.90
46458;DHT22;32155;54.076;12.092;2023-05-10T02:50:13;9.70;99.90
46458;DHT22;32155;54.076;12.092;2023-05-10T02:52:43;9.70;99.90
46458;DHT22;32155;54.076;12.092;2023-05-10T02:55:09;9.60;99.90
46458;DHT22;32155;54.076;12.092;2023-05-10T02:57:38;9.60;99.90
46458;DHT22;32155;54.076;12.092;2023-05-10T03:00:08;9.50;99.90
46458;DHT22;32155;54.076;12.092;2023-05-10T03:02:34;9.50;99.90
46458;DHT22;32155;54.076;12.092;2023-05-10T03:05:02;9.50;99.90
46458;DHT22;32155;54.076;12.092;2023-05-10T03:07:28;9.50;99.90
46458;DHT22;32155;54.076;12.092;2023-05-10T03:09:56;9.50;99.90
46458;DHT22;32155;54.076;12.092;2023-05-10T03:12:33;9.50;99.90
46458;DHT22;32155;54.076;12.092;2023-05-10T03:15:07;9.40;99.90
46458;DHT22;32155;54.076;12.092;2023-05-10T03:21:04;9.40;99.90
46458;DHT22;32155;54.076;12.092;2023-05-10T03:23:07;9.40;99.90
46458;DHT22;32155;54.076;12.092;2023-05-10T03:25:38;9.30;99.90
46458;DHT22;32155;54.076;12.092;2023-05-10T03:28:11;9.30;99.90
46458;DHT22;32155;54.076;12.092;2023-05-10T03:30:37;9.30;99.90
46458;DHT22;32155;54.076;12.092;2023-05-10T03:33:06;9.40;99.90
46458;DHT22;32155;54.076;12.092;2023-05-10T03:35:31;9.30;99.90
46458;DHT22;32155;54.076;12.092;2023-05-10T03:37:57;9.30;99.90
46458;DHT22;32155;54.076;12.092;2023-05-10T03:40:22;9.30;99.90
46458;DHT22;32155;54.076;12.092;2023-05-10T03:42:49;9.30;99.90
46458;DHT22;32155;54.076;12.092;2023-05-10T03:45:14;9.30;99.90
46458;DHT22;32155;54.076;12.092;2023-05-10T03:47:40;9.30;99.90
46458;DHT22;32155;54.076;12.092;2023-05-10T03:50:06;9.30;99.90
46458;DHT22;32155;54.076;12.092;2023-05-10T03:52:31;9.40;99.90
46458;DHT22;32155;54.076;12.092;2023-05-10T03:54:59;9.30;99.90
46458;DHT22;32155;54.076;12.092;2023-05-10T03:57:28;9.30;99.90
46458;DHT22;32155;54.076;12.092;2023-05-10T03:59:56;9.30;99.90
46458;DHT22;32155;54.076;12.092;2023-05-10T04:02:25;9.30;99.90
46458;DHT22;32155;54.076;12.092;2023-05-10T04:04:50;9.40;99.90
46458;DHT22;32155;54.076;12.092;2023-05-10T04:07:16;9.40;99.90
46458;DHT22;32155;54.076;12.092;2023-05-10T04:09:41;9.40;99.90
46458;DHT22;32155;54.076;12.092;2023-05-10T04:12:09;9.40;99.90
46458;DHT22;32155;54.076;12.092;2023-05-10T04:14:35;9.40;99.90
46458;DHT22;32155;54.076;12.092;2023-05-10T04:17:00;9.50;99.90
46458;DHT22;32155;54.076;12.092;2023-05-10T04:19:29;9.50;99.90
46458;DHT22;32155;54.076;12.092;2023-05-10T04:21:55;9.50;99.90
46458;DHT22;32155;54.076;12.092;2023-05-10T04:24:21;9.60;99.90
46458;DHT22;32155;54.076;12.092;2023-05-10T04:26:46;9.70;99.90
46458;DHT22;32155;54.076;12.092;2023-05-10T04:29:14;9.70;99.90
46458;DHT22;32155;54.076;12.092;2023-05-10T04:31:40;9.80;99.90
46458;DHT22;32155;54.076;12.092;2023-05-10T04:34:05;9.80;99.90
46458;DHT22;32155;54.076;12.092;2023-05-10T04:36:33;9.90;99.90
46458;DHT22;32155;54.076;12.092;2023-05-10T04:39:01;10.10;99.90
46458;DHT22;32155;54.076;12.092;2023-05-10T04:41:28;10.10;99.90
46458;DHT22;32155;54.076;12.092;2023-05-10T04:43:53;10.20;99.90
46458;DHT22;32155;54.076;12.092;2023-05-10T04:46:19;10.30;99.90
46458;DHT22;32155;54.076;12.092;2023-05-10T04:48:44;10.30;99.90
46458;DHT22;32155;54.076;12.092;2023-05-10T04:51:10;10.50;99.90
46458;DHT22;32155;54.076;12.092;2023-05-10T04:53:35;10.50;99.90
46458;DHT22;32155;54.076;12.092;2023-05-10T04:56:08;10.60;99.90
46458;DHT22;32155;54.076;12.092;2023-05-10T04:58:45;10.60;99.90
46458;DHT22;32155;54.076;12.092;2023-05-10T05:01:11;10.80;99.90
46458;DHT22;32155;54.076;12.092;2023-05-10T05:03:36;10.80;99.90
46458;DHT22;32155;54.076;12.092;2023-05-10T05:06:02;10.90;99.90
46458;DHT22;32155;54.076;12.092;2023-05-10T05:08:28;11.00;99.90
46458;DHT22;32155;54.076;12.092;2023-05-10T05:10:53;11.00;99.90
46458;DHT22;32155;54.076;12.092;2023-05-10T05:13:19;11.20;99.90
46458;DHT22;32155;54.076;12.092;2023-05-10T05:15:47;11.20;99.90
46458;DHT22;32155;54.076;12.092;2023-05-10T05:18:13;11.30;99.90
46458;DHT22;32155;54.076;12.092;2023-05-10T05:20:38;11.50;99.90
46458;DHT22;32155;54.076;12.092;2023-05-10T05:23:04;11.60;99.90
46458;DHT22;32155;54.076;12.092;2023-05-10T05:25:29;11.70;99.90
46458;DHT22;32155;54.076;12.092;2023-05-10T05:27:55;11.90;99.90
46458;DHT22;32155;54.076;12.092;2023-05-10T05:30:20;12.20;99.90
46458;DHT22;32155;54.076;12.092;2023-05-10T05:32:48;12.30;99.90
46458;DHT22;32155;54.076;12.092;2023-05-10T05:35:14;12.40;99.90
46458;DHT22;32155;54.076;12.092;2023-05-10T05:37:39;12.60;99.90
46458;DHT22;32155;54.076;12.092;2023-05-10T05:40:05;12.80;99.90
46458;DHT22;32155;54.076;12.092;2023-05-10T05:42:31;12.90;99.90
46458;DHT22;32155;54.076;12.092;2023-05-10T05:44:57;13.20;99.90
46458;DHT22;32155;54.076;12.092;2023-05-10T05:47:22;13.40;99.90
46458;DHT22;32155;54.076;12.092;2023-05-10T05:49:48;13.50;99.90
46458;DHT22;32155;54.076;12.092;2023-05-10T05:52:16;13.50;99.90
46458;DHT22;32155;54.076;12.092;2023-05-10T05:54:43;13.60;99.90
46458;DHT22;32155;54.076;12.092;2023-05-10T05:57:09;13.70;99.90
46458;DHT22;32155;54.076;12.092;2023-05-10T05:59:34;13.90;99.90
46458;DHT22;32155;54.076;12.092;2023-05-10T06:02:00;14.20;99.90
46458;DHT22;32155;54.076;12.092;2023-05-10T06:04:26;14.40;99.90
46458;DHT22;32155;54.076;12.092;2023-05-10T06:06:51;14.70;99.90
46458;DHT22;32155;54.076;12.092;2023-05-10T06:09:19;14.80;99.90
46458;DHT22;32155;54.076;12.092;2023-05-10T06:11:45;15.00;99.90
46458;DHT22;32155;54.076;12.092;2023-05-10T06:14:34;15.00;99.90
46458;DHT22;32155;54.076;12.092;2023-05-10T06:16:59;14.70;99.90
46458;DHT22;32155;54.076;12.092;2023-05-10T06:19:30;15.30;99.90
46458;DHT22;32155;54.076;12.092;2023-05-10T06:21:56;15.30;99.90
46458;DHT22;32155;54.076;12.092;2023-05-10T06:24:21;15.40;99.90
46458;DHT22;32155;54.076;12.092;2023-05-10T06:26:47;15.40;99.90
46458;DHT22;32155;54.076;12.092;2023-05-10T06:29:32;15.90;99.90
46458;DHT22;32155;54.076;12.092;2023-05-10T06:31:58;16.40;99.90
46458;DHT22;32155;54.076;12.092;2023-05-10T06:34:24;16.20;99.90
46458;DHT22;32155;54.076;12.092;2023-05-10T06:36:55;15.90;99.90
46458;DHT22;32155;54.076;12.092;2023-05-10T06:39:21;16.30;99.90
46458;DHT22;32155;54.076;12.092;2023-05-10T06:41:49;16.70;99.90
46458;DHT22;32155;54.076;12.092;2023-05-10T06:44:15;16.90;99.90
46458;DHT22;32155;54.076;12.092;2023-05-10T06:46:40;16.70;99.90
46458;DHT22;32155;54.076;12.092;2023-05-10T06:49:08;17.10;99.90
46458;DHT22;32155;54.076;12.092;2023-05-10T06:51:34;16.80;99.90
46458;DHT22;32155;54.076;12.092;2023-05-10T06:54:10;17.10;99.90
46458;DHT22;32155;54.076;12.092;2023-05-10T06:56:36;16.90;99.90
46458;DHT22;32155;54.076;12.092;2023-05-10T06:59:01;17.20;99.90
46458;DHT22;32155;54.076;12.092;2023-05-10T07:01:27;17.50;99.90
46458;DHT22;32155;54.076;12.092;2023-05-10T07:03:52;17.80;99.90
46458;DHT22;32155;54.076;12.092;2023-05-10T07:06:18;17.80;99.90
46458;DHT22;32155;54.076;12.092;2023-05-10T07:08:46;17.50;99.90
46458;DHT22;32155;54.076;12.092;2023-05-10T07:11:12;18.10;99.90
46458;DHT22;32155;54.076;12.092;2023-05-10T07:13:37;17.90;99.90
46458;DHT22;32155;54.076;12.092;2023-05-10T07:16:06;17.50;99.90
46458;DHT22;32155;54.076;12.092;2023-05-10T07:18:37;17.80;99.90
46458;DHT22;32155;54.076;12.092;2023-05-10T07:21:07;18.60;99.90
46458;DHT22;32155;54.076;12.092;2023-05-10T07:23:35;18.90;99.90
46458;DHT22;32155;54.076;12.092;2023-05-10T07:26:01;18.70;99.90
46458;DHT22;32155;54.076;12.092;2023-05-10T07:28:27;19.50;99.90
46458;DHT22;32155;54.076;12.092;2023-05-10T07:33:27;19.60;99.90
46458;DHT22;32155;54.076;12.092;2023-05-10T07:35:53;20.20;99.90
46458;DHT22;32155;54.076;12.092;2023-05-10T07:38:21;19.90;99.90
46458;DHT22;32155;54.076;12.092;2023-05-10T07:40:46;20.30;99.90
46458;DHT22;32155;54.076;12.092;2023-05-10T07:43:12;20.70;99.90
46458;DHT22;32155;54.076;12.092;2023-05-10T07:45:38;20.00;99.90
46458;DHT22;32155;54.076;12.092;2023-05-10T07:48:06;20.30;99.90
46458;DHT22;32155;54.076;12.092;2023-05-10T07:50:31;20.40;99.90
46458;DHT22;32155;54.076;12.092;2023-05-10T07:52:57;20.30;99.90
46458;DHT22;32155;54.076;12.092;2023-05-10T07:55:24;20.80;99.90
46458;DHT22;32155;54.076;12.092;2023-05-10T07:57:50;21.30;99.90
46458;DHT22;32155;54.076;12.092;2023-05-10T08:00:19;21.60;99.90
46458;DHT22;32155;54.076;12.092;2023-05-10T08:02:45;22.50;99.90
46458;DHT22;32155;54.076;12.092;2023-05-10T08:05:11;21.60;99.90
46458;DHT22;32155;54.076;12.092;2023-05-10T08:07:39;21.70;99.90
46458;DHT22;32155;54.076;12.092;2023-05-10T08:10:05;21.70;99.80
46458;DHT22;32155;54.076;12.092;2023-05-10T08:12:33;21.90;99.90
46458;DHT22;32155;54.076;12.092;2023-05-10T08:14:58;22.80;99.20
46458;DHT22;32155;54.076;12.092;2023-05-10T08:17:24;23.40;97.90
46458;DHT22;32155;54.076;12.092;2023-05-10T08:19:49;23.60;96.60
46458;DHT22;32155;54.076;12.092;2023-05-10T08:22:15;23.60;95.70
46458;DHT22;32155;54.076;12.092;2023-05-10T08:24:41;23.80;95.30
46458;DHT22;32155;54.076;12.092;2023-05-10T08:27:09;23.70;95.00
46458;DHT22;32155;54.076;12.092;2023-05-10T08:29:37;23.60;94.40
46458;DHT22;32155;54.076;12.092;2023-05-10T08:32:03;23.70;94.40
46458;DHT22;32155;54.076;12.092;2023-05-10T08:34:29;23.50;93.60
46458;DHT22;32155;54.076;12.092;2023-05-10T08:36:56;24.30;93.20
46458;DHT22;32155;54.076;12.092;2023-05-10T08:39:21;24.40;92.80
46458;DHT22;32155;54.076;12.092;2023-05-10T08:41:50;24.50;92.90
46458;DHT22;32155;54.076;12.092;2023-05-10T08:44:18;24.60;91.30
46458;DHT22;32155;54.076;12.092;2023-05-10T08:46:46;24.50;91.10
46458;DHT22;32155;54.076;12.092;2023-05-10T08:49:13;24.70;91.60
46458;DHT22;32155;54.076;12.092;2023-05-10T08:51:40;24.90;90.30
46458;DHT22;32155;54.076;12.092;2023-05-10T08:54:06;24.70;90.40
46458;DHT22;32155;54.076;12.092;2023-05-10T08:56:31;24.70;90.40
46458;DHT22;32155;54.076;12.092;2023-05-10T08:58:57;25.40;88.90
46458;DHT22;32155;54.076;12.092;2023-05-10T09:01:22;25.50;87.70
46458;DHT22;32155;54.076;12.092;2023-05-10T09:03:48;25.40;87.90
46458;DHT22;32155;54.076;12.092;2023-05-10T09:06:14;26.70;85.70
46458;DHT22;32155;54.076;12.092;2023-05-10T09:08:41;26.80;83.80
46458;DHT22;32155;54.076;12.092;2023-05-10T09:11:06;26.90;82.10
46458;DHT22;32155;54.076;12.092;2023-05-10T09:13:34;26.20;81.20
46458;DHT22;32155;54.076;12.092;2023-05-10T09:16:03;25.80;82.40
46458;DHT22;32155;54.076;12.092;2023-05-10T09:18:28;26.90;79.00
46458;DHT22;32155;54.076;12.092;2023-05-10T09:20:55;27.10;78.70
46458;DHT22;32155;54.076;12.092;2023-05-10T09:23:21;26.30;80.20
46458;DHT22;32155;54.076;12.092;2023-05-10T09:26:03;26.60;79.50
46458;DHT22;32155;54.076;12.092;2023-05-10T09:28:33;27.80;78.10
46458;DHT22;32155;54.076;12.092;2023-05-10T09:30:59;26.50;76.30
46458;DHT22;32155;54.076;12.092;2023-05-10T09:33:43;26.30;77.70
46458;DHT22;32155;54.076;12.092;2023-05-10T09:39:56;28.40;75.40
46458;DHT22;32155;54.076;12.092;2023-05-10T09:42:22;29.20;72.40
46458;DHT22;32155;54.076;12.092;2023-05-10T09:44:48;29.00;70.40
46458;DHT22;32155;54.076;12.092;2023-05-10T09:47:17;28.10;70.40
46458;DHT22;32155;54.076;12.092;2023-05-10T09:49:43;28.10;71.10
46458;DHT22;32155;54.076;12.092;2023-05-10T09:52:10;28.60;69.70
46458;DHT22;32155;54.076;12.092;2023-05-10T09:54:36;27.80;71.00
46458;DHT22;32155;54.076;12.092;2023-05-10T09:57:02;28.00;71.50
46458;DHT22;32155;54.076;12.092;2023-05-10T09:59:32;29.00;71.10
46458;DHT22;32155;54.076;12.092;2023-05-10T10:01:58;29.70;68.50
46458;DHT22;32155;54.076;12.092;2023-05-10T10:04:24;28.40;68.80
46458;DHT22;32155;54.076;12.092;2023-05-10T10:07:11;28.90;68.50
46458;DHT22;32155;54.076;12.092;2023-05-10T10:09:38;29.70;67.90
46458;DHT22;32155;54.076;12.092;2023-05-10T10:12:03;30.10;65.10
46458;DHT22;32155;54.076;12.092;2023-05-10T10:14:30;30.60;65.00
46458;DHT22;32155;54.076;12.092;2023-05-10T10:16:55;29.80;63.70
46458;DHT22;32155;54.076;12.092;2023-05-10T10:19:21;30.70;63.80
46458;DHT22;32155;54.076;12.092;2023-05-10T10:21:47;30.70;62.80
46458;DHT22;32155;54.076;12.092;2023-05-10T10:24:16;30.20;62.70
46458;DHT22;32155;54.076;12.092;2023-05-10T10:26:45;30.30;61.70
46458;DHT22;32155;54.076;12.092;2023-05-10T10:34:29;29.50;64.40
46458;DHT22;32155;54.076;12.092;2023-05-10T10:36:59;30.20;63.70
46458;DHT22;32155;54.076;12.092;2023-05-10T10:39:28;30.20;59.80
46458;DHT22;32155;54.076;12.092;2023-05-10T10:41:55;30.30;60.70
46458;DHT22;32155;54.076;12.092;2023-05-10T10:44:25;29.70;61.00
46458;DHT22;32155;54.076;12.092;2023-05-10T10:49:26;30.40;59.90
46458;DHT22;32155;54.076;12.092;2023-05-10T10:54:37;30.40;59.20
46458;DHT22;32155;54.076;12.092;2023-05-10T10:57:12;30.30;58.90
46458;DHT22;32155;54.076;12.092;2023-05-10T10:59:42;30.80;58.40
46458;DHT22;32155;54.076;12.092;2023-05-10T11:02:11;31.80;58.00
46458;DHT22;32155;54.076;12.092;2023-05-10T11:04:54;32.30;56.80
46458;DHT22;32155;54.076;12.092;2023-05-10T11:07:20;31.50;56.40
46458;DHT22;32155;54.076;12.092;2023-05-10T11:09:46;31.60;57.00
46458;DHT22;32155;54.076;12.092;2023-05-10T11:12:12;31.30;55.90
46458;DHT22;32155;54.076;12.092;2023-05-10T11:14:40;30.80;57.80
46458;DHT22;32155;54.076;12.092;2023-05-10T11:20:08;30.90;56.80
46458;DHT22;32155;54.076;12.092;2023-05-10T11:22:50;30.90;57.40
46458;DHT22;32155;54.076;12.092;2023-05-10T11:25:18;31.40;57.40
46458;DHT22;32155;54.076;12.092;2023-05-10T11:27:44;30.80;56.20
46458;DHT22;32155;54.076;12.092;2023-05-10T11:30:11;31.40;55.50
46458;DHT22;32155;54.076;12.092;2023-05-10T11:32:40;30.80;56.40
46458;DHT22;32155;54.076;12.092;2023-05-10T11:35:09;30.80;56.50
46458;DHT22;32155;54.076;12.092;2023-05-10T11:37:35;30.60;56.00
46458;DHT22;32155;54.076;12.092;2023-05-10T11:40:01;31.50;55.90
46458;DHT22;32155;54.076;12.092;2023-05-10T11:42:29;32.60;54.10
46458;DHT22;32155;54.076;12.092;2023-05-10T11:44:55;32.80;54.70
46458;DHT22;32155;54.076;12.092;2023-05-10T11:47:21;30.60;54.40
46458;DHT22;32155;54.076;12.092;2023-05-10T11:49:49;30.80;55.00
46458;DHT22;32155;54.076;12.092;2023-05-10T11:52:15;30.60;55.20
46458;DHT22;32155;54.076;12.092;2023-05-10T11:54:52;30.60;54.80
46458;DHT22;32155;54.076;12.092;2023-05-10T11:57:18;30.80;56.20
46458;DHT22;32155;54.076;12.092;2023-05-10T11:59:45;30.80;55.90
46458;DHT22;32155;54.076;12.092;2023-05-10T12:02:11;31.00;55.50
46458;DHT22;32155;54.076;12.092;2023-05-10T12:04:37;31.60;55.20
46458;DHT22;32155;54.076;12.092;2023-05-10T12:07:02;32.00;55.40
46458;DHT22;32155;54.076;12.092;2023-05-10T12:09:28;32.50;55.20
46458;DHT22;32155;54.076;12.092;2023-05-10T12:11:56;32.70;54.50
46458;DHT22;32155;54.076;12.092;2023-05-10T12:14:22;31.80;54.90
46458;DHT22;32155;54.076;12.092;2023-05-10T12:16:47;29.70;57.00
46458;DHT22;32155;54.076;12.092;2023-05-10T12:19:13;29.10;57.90
46458;DHT22;32155;54.076;12.092;2023-05-10T12:21:45;28.70;58.00
46458;DHT22;32155;54.076;12.092;2023-05-10T12:24:11;28.60;58.70
46458;DHT22;32155;54.076;12.092;2023-05-10T12:26:36;29.50;58.60
46458;DHT22;32155;54.076;12.092;2023-05-10T12:31:49;29.00;58.10
46458;DHT22;32155;54.076;12.092;2023-05-10T12:36:51;28.40;57.50
46458;DHT22;32155;54.076;12.092;2023-05-10T12:39:17;28.70;57.20
46458;DHT22;32155;54.076;12.092;2023-05-10T12:41:45;28.60;58.30
46458;DHT22;32155;54.076;12.092;2023-05-10T12:44:10;28.10;57.90
46458;DHT22;32155;54.076;12.092;2023-05-10T12:46:36;27.80;59.20
46458;DHT22;32155;54.076;12.092;2023-05-10T12:49:02;26.80;60.80
46458;DHT22;32155;54.076;12.092;2023-05-10T12:51:27;27.70;61.60
46458;DHT22;32155;54.076;12.092;2023-05-10T12:53:53;27.20;61.10
46458;DHT22;32155;54.076;12.092;2023-05-10T12:56:19;27.40;60.20
46458;DHT22;32155;54.076;12.092;2023-05-10T12:58:45;26.50;62.10
46458;DHT22;32155;54.076;12.092;2023-05-10T13:01:14;25.20;64.70
46458;DHT22;32155;54.076;12.092;2023-05-10T13:03:40;24.40;67.40
46458;DHT22;32155;54.076;12.092;2023-05-10T13:06:05;24.20;67.50
46458;DHT22;32155;54.076;12.092;2023-05-10T13:08:31;23.80;68.30
46458;DHT22;32155;54.076;12.092;2023-05-10T13:10:59;23.60;69.10
46458;DHT22;32155;54.076;12.092;2023-05-10T13:13:24;23.50;69.00
46458;DHT22;32155;54.076;12.092;2023-05-10T13:15:50;23.50;69.50
46458;DHT22;32155;54.076;12.092;2023-05-10T13:18:15;23.40;70.40
46458;DHT22;32155;54.076;12.092;2023-05-10T13:20:41;23.30;71.20
46458;DHT22;32155;54.076;12.092;2023-05-10T13:23:08;23.30;69.30
46458;DHT22;32155;54.076;12.092;2023-05-10T13:25:33;22.90;71.60
46458;DHT22;32155;54.076;12.092;2023-05-10T13:27:59;23.00;71.60
46458;DHT22;32155;54.076;12.092;2023-05-10T13:30:25;23.10;71.30
46458;DHT22;32155;54.076;12.092;2023-05-10T13:32:51;23.20;71.80
46458;DHT22;32155;54.076;12.092;2023-05-10T13:35:16;23.40;70.60
46458;DHT22;32155;54.076;12.092;2023-05-10T13:37:47;23.10;72.10
46458;DHT22;32155;54.076;12.092;2023-05-10T13:40:15;23.00;72.20
46458;DHT22;32155;54.076;12.092;2023-05-10T13:42:43;23.30;72.80
46458;DHT22;32155;54.076;12.092;2023-05-10T13:45:11;23.30;71.70
46458;DHT22;32155;54.076;12.092;2023-05-10T13:47:38;23.50;71.80
46458;DHT22;32155;54.076;12.092;2023-05-10T13:50:03;23.80;71.40
46458;DHT22;32155;54.076;12.092;2023-05-10T13:52:29;23.90;71.10
46458;DHT22;32155;54.076;12.092;2023-05-10T13:54:55;23.60;71.30
46458;DHT22;32155;54.076;12.092;2023-05-10T13:57:23;23.50;71.70
46458;DHT22;32155;54.076;12.092;2023-05-10T13:59:49;23.50;72.10
46458;DHT22;32155;54.076;12.092;2023-05-10T14:02:15;23.60;72.50
46458;DHT22;32155;54.076;12.092;2023-05-10T14:04:40;23.70;71.70
46458;DHT22;32155;54.076;12.092;2023-05-10T14:07:08;24.00;71.60
46458;DHT22;32155;54.076;12.092;2023-05-10T14:09:34;23.90;70.70
46458;DHT22;32155;54.076;12.092;2023-05-10T14:12:02;23.90;72.60
46458;DHT22;32155;54.076;12.092;2023-05-10T14:14:27;24.60;71.10
46458;DHT22;32155;54.076;12.092;2023-05-10T14:16:54;25.40;69.50
46458;DHT22;32155;54.076;12.092;2023-05-10T14:19:20;26.00;68.50
46458;DHT22;32155;54.076;12.092;2023-05-10T14:21:45;25.70;68.30
46458;DHT22;32155;54.076;12.092;2023-05-10T14:24:13;25.60;69.40
46458;DHT22;32155;54.076;12.092;2023-05-10T14:26:39;24.90;70.40
46458;DHT22;32155;54.076;12.092;2023-05-10T14:29:04;24.40;71.10
46458;DHT22;32155;54.076;12.092;2023-05-10T14:31:32;24.30;71.60
46458;DHT22;32155;54.076;12.092;2023-05-10T14:33:58;24.50;71.40
46458;DHT22;32155;54.076;12.092;2023-05-10T14:36:24;24.40;72.30
46458;DHT22;32155;54.076;12.092;2023-05-10T14:38:50;23.90;73.80
46458;DHT22;32155;54.076;12.092;2023-05-10T14:41:16;23.90;75.90
46458;DHT22;32155;54.076;12.092;2023-05-10T14:43:42;23.90;74.90
46458;DHT22;32155;54.076;12.092;2023-05-10T14:46:08;23.90;74.70
46458;DHT22;32155;54.076;12.092;2023-05-10T14:48:33;23.60;74.70
46458;DHT22;32155;54.076;12.092;2023-05-10T14:51:01;23.80;76.60
46458;DHT22;32155;54.076;12.092;2023-05-10T14:53:27;23.90;75.40
46458;DHT22;32155;54.076;12.092;2023-05-10T14:55:53;23.90;74.10
46458;DHT22;32155;54.076;12.092;2023-05-10T14:58:18;23.60;74.00
46458;DHT22;32155;54.076;12.092;2023-05-10T15:00:44;23.60;73.90
46458;DHT22;32155;54.076;12.092;2023-05-10T15:03:09;23.80;74.10
46458;DHT22;32155;54.076;12.092;2023-05-10T15:05:35;23.90;74.30
46458;DHT22;32155;54.076;12.092;2023-05-10T15:08:02;23.70;73.60
46458;DHT22;32155;54.076;12.092;2023-05-10T15:10:30;24.10;73.60
46458;DHT22;32155;54.076;12.092;2023-05-10T15:12:57;24.10;73.60
46458;DHT22;32155;54.076;12.092;2023-05-10T15:15:23;23.60;74.50
46458;DHT22;32155;54.076;12.092;2023-05-10T15:17:48;23.50;76.10
46458;DHT22;32155;54.076;12.092;2023-05-10T15:20:16;23.30;77.20
46458;DHT22;32155;54.076;12.092;2023-05-10T15:22:41;23.50;77.70
46458;DHT22;32155;54.076;12.092;2023-05-10T15:25:07;23.50;76.90
46458;DHT22;32155;54.076;12.092;2023-05-10T15:27:33;23.20;76.70
46458;DHT22;32155;54.076;12.092;2023-05-10T15:29:58;23.00;76.60
46458;DHT22;32155;54.076;12.092;2023-05-10T15:32:24;22.90;78.50
46458;DHT22;32155;54.076;12.092;2023-05-10T15:34:50;22.90;79.40
46458;DHT22;32155;54.076;12.092;2023-05-10T15:37:16;22.80;79.30
46458;DHT22;32155;54.076;12.092;2023-05-10T15:39:41;22.60;80.20
46458;DHT22;32155;54.076;12.092;2023-05-10T15:42:07;22.70;80.00
46458;DHT22;32155;54.076;12.092;2023-05-10T15:44:32;22.70;80.10
46458;DHT22;32155;54.076;12.092;2023-05-10T15:47:00;22.60;81.10
46458;DHT22;32155;54.076;12.092;2023-05-10T15:49:28;22.70;79.60
46458;DHT22;32155;54.076;12.092;2023-05-10T15:51:54;22.70;80.50
46458;DHT22;32155;54.076;12.092;2023-05-10T15:54:20;22.90;81.00
46458;DHT22;32155;54.076;12.092;2023-05-10T15:56:48;22.70;81.20
46458;DHT22;32155;54.076;12.092;2023-05-10T15:59:13;22.60;81.90
46458;DHT22;32155;54.076;12.092;2023-05-10T16:01:39;22.50;82.20